Terminal Aerodrome Forecast
Issued by NWS Omaha/Valley, NE

Home | Current Version | Previous Version | Text Only | Print | Product List | Glossary On
Versions: 1 2 3 4 5 6 7 8 9 10 11 12 13 14 15 16 17 18 19 20
000
FTUS43 KOAX 160538 CCA
TAFOFK
TAF COR
KOFK 160538Z 1606/1706 25004KT P6SM BKN250
     FM161300 30004KT P6SM SCT100 OVC250
     FM161700 36010KT P6SM OVC250=

USA.gov is the U.S. government's official web portal to all federal, state and local government web resources and services.